sensor_id;sensor_type;location;lat;lon;timestamp;pressure;altitude;pressure_sealevel;temperature;humidity
28448;BME280;15675;52.870;-1.416;2022-07-29T07:11:01;101447.44;;;16.98;100.00
28448;BME280;15675;52.870;-1.416;2022-07-29T07:13:27;101431.44;;;17.23;100.00
28448;BME280;15675;52.870;-1.416;2022-07-29T07:15:56;101432.16;;;17.36;100.00
28448;BME280;15675;52.870;-1.416;2022-07-29T07:18:22;101428.31;;;17.60;100.00
28448;BME280;15675;52.870;-1.416;2022-07-29T07:20:48;101422.78;;;17.77;100.00
28448;BME280;15675;52.870;-1.416;2022-07-29T07:23:14;101423.91;;;17.60;100.00
28448;BME280;15675;52.870;-1.416;2022-07-29T07:25:39;101430.69;;;17.75;100.00
28448;BME280;15675;52.870;-1.416;2022-07-29T07:28:05;101427.03;;;17.87;100.00
28448;BME280;15675;52.870;-1.416;2022-07-29T07:30:31;101427.81;;;17.94;100.00
28448;BME280;15675;52.870;-1.416;2022-07-29T07:32:56;101426.91;;;17.97;100.00
28448;BME280;15675;52.870;-1.416;2022-07-29T07:35:22;101428.44;;;18.11;100.00
28448;BME280;15675;52.870;-1.416;2022-07-29T07:37:48;101429.56;;;17.95;100.00
28448;BME280;15675;52.870;-1.416;2022-07-29T07:40:14;101427.56;;;18.09;100.00
28448;BME280;15675;52.870;-1.416;2022-07-29T07:42:40;101426.94;;;17.95;100.00
28448;BME280;15675;52.870;-1.416;2022-07-29T07:45:07;101429.88;;;18.28;100.00
28448;BME280;15675;52.870;-1.416;2022-07-29T07:47:35;101418.47;;;17.74;100.00
28448;BME280;15675;52.870;-1.416;2022-07-29T07:50:03;101424.81;;;17.58;100.00
28448;BME280;15675;52.870;-1.416;2022-07-29T07:52:28;101424.84;;;17.56;100.00
28448;BME280;15675;52.870;-1.416;2022-07-29T07:54:54;101436.88;;;17.73;100.00
28448;BME280;15675;52.870;-1.416;2022-07-29T07:57:20;101437.75;;;17.72;100.00
28448;BME280;15675;52.870;-1.416;2022-07-29T07:59:46;101432.31;;;17.86;100.00
28448;BME280;15675;52.870;-1.416;2022-07-29T08:02:11;101420.88;;;17.88;100.00
28448;BME280;15675;52.870;-1.416;2022-07-29T08:04:37;101425.25;;;17.88;100.00
28448;BME280;15675;52.870;-1.416;2022-07-29T08:07:06;101424.91;;;18.11;100.00
28448;BME280;15675;52.870;-1.416;2022-07-29T08:09:33;101422.34;;;18.08;100.00
28448;BME280;15675;52.870;-1.416;2022-07-29T08:11:59;101426.47;;;18.24;100.00
28448;BME280;15675;52.870;-1.416;2022-07-29T08:14:29;101437.47;;;18.45;100.00
28448;BME280;15675;52.870;-1.416;2022-07-29T08:16:55;101424.69;;;18.73;100.00
28448;BME280;15675;52.870;-1.416;2022-07-29T08:19:20;101417.78;;;18.68;100.00
28448;BME280;15675;52.870;-1.416;2022-07-29T08:21:46;101418.59;;;18.70;100.00
28448;BME280;15675;52.870;-1.416;2022-07-29T08:24:12;101404.16;;;18.94;99.37
28448;BME280;15675;52.870;-1.416;2022-07-29T08:26:56;101418.41;;;18.80;99.47
28448;BME280;15675;52.870;-1.416;2022-07-29T08:29:21;101412.03;;;18.94;98.06
28448;BME280;15675;52.870;-1.416;2022-07-29T08:31:47;101401.38;;;19.02;96.17
28448;BME280;15675;52.870;-1.416;2022-07-29T08:34:13;101405.84;;;18.96;94.26
28448;BME280;15675;52.870;-1.416;2022-07-29T08:36:38;101394.78;;;18.79;92.52
28448;BME280;15675;52.870;-1.416;2022-07-29T08:39:04;101401.97;;;19.14;90.86
28448;BME280;15675;52.870;-1.416;2022-07-29T08:41:30;101408.47;;;19.39;90.02
28448;BME280;15675;52.870;-1.416;2022-07-29T08:43:56;101406.97;;;19.28;89.31
28448;BME280;15675;52.870;-1.416;2022-07-29T08:46:22;101411.88;;;19.42;86.87
28448;BME280;15675;52.870;-1.416;2022-07-29T08:48:48;101408.56;;;19.36;84.11
28448;BME280;15675;52.870;-1.416;2022-07-29T08:51:16;101406.28;;;19.58;83.64
28448;BME280;15675;52.870;-1.416;2022-07-29T08:53:44;101405.53;;;19.53;83.12
28448;BME280;15675;52.870;-1.416;2022-07-29T08:56:14;101401.94;;;19.55;84.28
28448;BME280;15675;52.870;-1.416;2022-07-29T08:58:40;101403.81;;;19.89;82.81
28448;BME280;15675;52.870;-1.416;2022-07-29T09:01:07;101397.00;;;20.16;81.06
28448;BME280;15675;52.870;-1.416;2022-07-29T09:03:36;101396.72;;;20.27;80.66
28448;BME280;15675;52.870;-1.416;2022-07-29T09:06:03;101394.25;;;20.54;77.72
28448;BME280;15675;52.870;-1.416;2022-07-29T09:08:32;101398.88;;;20.46;75.60
28448;BME280;15675;52.870;-1.416;2022-07-29T09:10:58;101401.59;;;20.43;76.19
28448;BME280;15675;52.870;-1.416;2022-07-29T09:13:25;101385.28;;;20.61;74.61
28448;BME280;15675;52.870;-1.416;2022-07-29T09:15:52;101397.84;;;20.51;75.60
28448;BME280;15675;52.870;-1.416;2022-07-29T09:18:34;101405.47;;;20.28;74.15
28448;BME280;15675;52.870;-1.416;2022-07-29T09:21:01;101406.16;;;20.36;73.60
28448;BME280;15675;52.870;-1.416;2022-07-29T09:24:02;101407.63;;;20.46;74.10
28448;BME280;15675;52.870;-1.416;2022-07-29T09:26:34;101395.97;;;20.57;70.77
28448;BME280;15675;52.870;-1.416;2022-07-29T09:29:09;101393.44;;;20.85;70.09
28448;BME280;15675;52.870;-1.416;2022-07-29T09:31:38;101388.28;;;21.10;69.71
28448;BME280;15675;52.870;-1.416;2022-07-29T09:34:04;101390.63;;;20.91;68.44
28448;BME280;15675;52.870;-1.416;2022-07-29T09:36:38;101387.78;;;20.97;67.67
28448;BME280;15675;52.870;-1.416;2022-07-29T09:39:04;101380.78;;;20.96;67.22
28448;BME280;15675;52.870;-1.416;2022-07-29T09:41:44;101382.47;;;20.99;68.26
28448;BME280;15675;52.870;-1.416;2022-07-29T09:44:10;101383.59;;;21.20;67.67
28448;BME280;15675;52.870;-1.416;2022-07-29T09:46:35;101390.31;;;21.30;66.85
28448;BME280;15675;52.870;-1.416;2022-07-29T09:49:09;101387.41;;;21.40;65.85
28448;BME280;15675;52.870;-1.416;2022-07-29T09:51:36;101379.13;;;20.94;64.47
28448;BME280;15675;52.870;-1.416;2022-07-29T09:54:20;101388.69;;;20.96;66.88
28448;BME280;15675;52.870;-1.416;2022-07-29T09:56:46;101380.16;;;21.18;67.50
28448;BME280;15675;52.870;-1.416;2022-07-29T09:59:13;101381.31;;;21.08;66.06
28448;BME280;15675;52.870;-1.416;2022-07-29T10:01:39;101390.03;;;21.11;65.31
28448;BME280;15675;52.870;-1.416;2022-07-29T10:04:05;101380.16;;;21.18;64.75
28448;BME280;15675;52.870;-1.416;2022-07-29T10:06:31;101386.69;;;21.34;64.88
28448;BME280;15675;52.870;-1.416;2022-07-29T10:09:15;101386.31;;;21.47;63.87
28448;BME280;15675;52.870;-1.416;2022-07-29T10:11:41;101383.41;;;21.56;63.36
28448;BME280;15675;52.870;-1.416;2022-07-29T10:14:07;101387.97;;;21.79;62.04
28448;BME280;15675;52.870;-1.416;2022-07-29T10:16:32;101380.84;;;21.81;62.28
28448;BME280;15675;52.870;-1.416;2022-07-29T10:18:59;101377.38;;;21.51;61.59
28448;BME280;15675;52.870;-1.416;2022-07-29T10:21:25;101382.50;;;21.57;62.46
28448;BME280;15675;52.870;-1.416;2022-07-29T10:23:52;101384.84;;;21.66;62.77
28448;BME280;15675;52.870;-1.416;2022-07-29T10:26:19;101382.75;;;21.76;61.92
28448;BME280;15675;52.870;-1.416;2022-07-29T10:28:45;101379.38;;;21.99;61.17
28448;BME280;15675;52.870;-1.416;2022-07-29T10:31:45;101380.78;;;22.10;61.40
28448;BME280;15675;52.870;-1.416;2022-07-29T10:34:20;101388.81;;;22.06;61.24
28448;BME280;15675;52.870;-1.416;2022-07-29T10:37:03;101392.19;;;22.10;60.65
28448;BME280;15675;52.870;-1.416;2022-07-29T10:42:18;101392.81;;;22.18;60.63
28448;BME280;15675;52.870;-1.416;2022-07-29T10:44:45;101389.16;;;21.96;59.94
28448;BME280;15675;52.870;-1.416;2022-07-29T10:47:24;101386.88;;;22.12;60.30
28448;BME280;15675;52.870;-1.416;2022-07-29T10:49:58;101387.03;;;22.07;59.37
28448;BME280;15675;52.870;-1.416;2022-07-29T10:52:24;101388.53;;;21.89;59.16
28448;BME280;15675;52.870;-1.416;2022-07-29T10:54:53;101389.59;;;21.83;59.67
28448;BME280;15675;52.870;-1.416;2022-07-29T10:57:29;101378.53;;;21.97;59.52
28448;BME280;15675;52.870;-1.416;2022-07-29T11:05:02;101378.59;;;21.69;59.08
28448;BME280;15675;52.870;-1.416;2022-07-29T11:07:29;101373.06;;;22.03;58.80
28448;BME280;15675;52.870;-1.416;2022-07-29T11:15:16;101376.72;;;22.51;57.34
28448;BME280;15675;52.870;-1.416;2022-07-29T11:20:37;101380.88;;;22.32;57.08
28448;BME280;15675;52.870;-1.416;2022-07-29T11:23:29;101370.75;;;22.70;57.71
28448;BME280;15675;52.870;-1.416;2022-07-29T11:39:42;101375.06;;;23.64;55.84
28448;BME280;15675;52.870;-1.416;2022-07-29T11:47:37;101356.84;;;23.34;54.19
28448;BME280;15675;52.870;-1.416;2022-07-29T11:50:07;101357.63;;;23.81;53.33
28448;BME280;15675;52.870;-1.416;2022-07-29T11:52:38;101348.84;;;23.36;53.06
28448;BME280;15675;52.870;-1.416;2022-07-29T11:55:10;101348.78;;;23.59;53.52
28448;BME280;15675;52.870;-1.416;2022-07-29T11:57:48;101345.94;;;23.20;54.56
28448;BME280;15675;52.870;-1.416;2022-07-29T12:00:29;101350.75;;;23.08;55.02
28448;BME280;15675;52.870;-1.416;2022-07-29T12:02:57;101347.72;;;22.96;55.43
28448;BME280;15675;52.870;-1.416;2022-07-29T12:05:44;101336.97;;;23.24;55.49
28448;BME280;15675;52.870;-1.416;2022-07-29T12:08:18;101339.03;;;23.60;54.99
28448;BME280;15675;52.870;-1.416;2022-07-29T12:10:46;101343.09;;;23.91;53.35
28448;BME280;15675;52.870;-1.416;2022-07-29T12:13:13;101339.50;;;24.12;52.84
28448;BME280;15675;52.870;-1.416;2022-07-29T12:15:39;101340.72;;;24.05;52.63
28448;BME280;15675;52.870;-1.416;2022-07-29T12:18:14;101342.41;;;23.86;53.02
28448;BME280;15675;52.870;-1.416;2022-07-29T12:20:40;101342.97;;;23.94;52.98
28448;BME280;15675;52.870;-1.416;2022-07-29T12:23:07;101334.63;;;23.38;53.58
28448;BME280;15675;52.870;-1.416;2022-07-29T12:25:35;101339.44;;;23.51;54.57
28448;BME280;15675;52.870;-1.416;2022-07-29T12:28:08;101339.47;;;23.71;54.48
28448;BME280;15675;52.870;-1.416;2022-07-29T12:30:40;101332.72;;;23.85;53.51
28448;BME280;15675;52.870;-1.416;2022-07-29T12:33:27;101329.97;;;23.88;53.33
28448;BME280;15675;52.870;-1.416;2022-07-29T12:35:59;101321.69;;;23.95;52.66
28448;BME280;15675;52.870;-1.416;2022-07-29T12:38:26;101326.69;;;24.03;52.43
28448;BME280;15675;52.870;-1.416;2022-07-29T12:40:53;101314.03;;;24.10;52.32
28448;BME280;15675;52.870;-1.416;2022-07-29T12:43:20;101321.03;;;24.32;51.43
28448;BME280;15675;52.870;-1.416;2022-07-29T12:45:49;101318.69;;;24.24;50.99
28448;BME280;15675;52.870;-1.416;2022-07-29T12:48:15;101319.50;;;24.26;51.33
28448;BME280;15675;52.870;-1.416;2022-07-29T12:50:59;101326.91;;;23.97;52.00
28448;BME280;15675;52.870;-1.416;2022-07-29T12:53:25;101325.00;;;23.58;53.46
28448;BME280;15675;52.870;-1.416;2022-07-29T12:55:53;101327.31;;;23.66;53.56
28448;BME280;15675;52.870;-1.416;2022-07-29T12:58:45;101318.66;;;23.62;53.60
28448;BME280;15675;52.870;-1.416;2022-07-29T13:01:16;101324.84;;;23.40;53.83
28448;BME280;15675;52.870;-1.416;2022-07-29T13:03:56;101324.78;;;23.42;54.24
28448;BME280;15675;52.870;-1.416;2022-07-29T13:09:05;101325.47;;;23.25;54.03
28448;BME280;15675;52.870;-1.416;2022-07-29T13:11:46;101328.91;;;23.27;54.61
28448;BME280;15675;52.870;-1.416;2022-07-29T13:14:28;101325.59;;;23.22;54.59
28448;BME280;15675;52.870;-1.416;2022-07-29T13:17:09;101342.81;;;23.08;54.30
28448;BME280;15675;52.870;-1.416;2022-07-29T13:19:41;101343.00;;;23.27;54.33
28448;BME280;15675;52.870;-1.416;2022-07-29T13:22:18;101340.13;;;23.12;54.28
28448;BME280;15675;52.870;-1.416;2022-07-29T13:25:00;101339.28;;;23.54;54.04
28448;BME280;15675;52.870;-1.416;2022-07-29T13:27:31;101341.66;;;23.39;54.16
28448;BME280;15675;52.870;-1.416;2022-07-29T13:30:01;101339.28;;;23.54;53.68
28448;BME280;15675;52.870;-1.416;2022-07-29T13:32:29;101336.03;;;23.69;53.39
28448;BME280;15675;52.870;-1.416;2022-07-29T13:34:56;101325.75;;;23.61;52.96
28448;BME280;15675;52.870;-1.416;2022-07-29T13:37:22;101335.34;;;23.64;53.55
28448;BME280;15675;52.870;-1.416;2022-07-29T13:39:47;101332.63;;;23.88;53.06
28448;BME280;15675;52.870;-1.416;2022-07-29T13:42:13;101320.63;;;24.00;52.72
28448;BME280;15675;52.870;-1.416;2022-07-29T13:44:40;101326.97;;;23.95;52.46
28448;BME280;15675;52.870;-1.416;2022-07-29T13:47:06;101324.34;;;24.16;51.91
28448;BME280;15675;52.870;-1.416;2022-07-29T13:49:33;101334.69;;;23.79;52.98
28448;BME280;15675;52.870;-1.416;2022-07-29T13:51:59;101336.63;;;23.76;52.88
28448;BME280;15675;52.870;-1.416;2022-07-29T13:54:24;101322.56;;;23.96;53.07
28448;BME280;15675;52.870;-1.416;2022-07-29T13:56:51;101320.03;;;24.13;52.11
28448;BME280;15675;52.870;-1.416;2022-07-29T13:59:16;101314.59;;;24.17;51.77
28448;BME280;15675;52.870;-1.416;2022-07-29T14:01:42;101309.53;;;24.31;52.23
28448;BME280;15675;52.870;-1.416;2022-07-29T14:04:09;101305.56;;;24.21;51.73
28448;BME280;15675;52.870;-1.416;2022-07-29T14:06:36;101300.50;;;24.16;52.38
28448;BME280;15675;52.870;-1.416;2022-07-29T14:09:02;101304.97;;;24.14;52.17
28448;BME280;15675;52.870;-1.416;2022-07-29T14:11:32;101297.47;;;24.24;51.33
28448;BME280;15675;52.870;-1.416;2022-07-29T14:13:58;101289.66;;;24.21;51.88
28448;BME280;15675;52.870;-1.416;2022-07-29T14:16:23;101293.38;;;24.17;51.56
28448;BME280;15675;52.870;-1.416;2022-07-29T14:18:49;101299.75;;;24.33;51.29
28448;BME280;15675;52.870;-1.416;2022-07-29T14:21:15;101302.84;;;24.43;50.94
28448;BME280;15675;52.870;-1.416;2022-07-29T14:23:40;101311.31;;;24.11;51.42
28448;BME280;15675;52.870;-1.416;2022-07-29T14:26:06;101317.91;;;24.22;51.60
28448;BME280;15675;52.870;-1.416;2022-07-29T14:28:32;101305.16;;;23.68;52.71
28448;BME280;15675;52.870;-1.416;2022-07-29T14:30:58;101311.66;;;23.82;52.07
28448;BME280;15675;52.870;-1.416;2022-07-29T14:33:23;101309.22;;;24.18;51.17
28448;BME280;15675;52.870;-1.416;2022-07-29T14:35:49;101310.34;;;24.33;50.74
28448;BME280;15675;52.870;-1.416;2022-07-29T14:38:15;101305.88;;;24.34;50.46
28448;BME280;15675;52.870;-1.416;2022-07-29T14:40:40;101307.34;;;24.41;51.19
28448;BME280;15675;52.870;-1.416;2022-07-29T14:43:06;101305.94;;;24.53;49.97
28448;BME280;15675;52.870;-1.416;2022-07-29T14:45:32;101296.19;;;24.72;50.20
28448;BME280;15675;52.870;-1.416;2022-07-29T14:47:57;101294.50;;;24.71;49.81
28448;BME280;15675;52.870;-1.416;2022-07-29T14:50:23;101308.81;;;25.05;49.22
28448;BME280;15675;52.870;-1.416;2022-07-29T14:52:52;101304.81;;;24.96;49.17
28448;BME280;15675;52.870;-1.416;2022-07-29T14:55:18;101303.84;;;25.36;48.58
28448;BME280;15675;52.870;-1.416;2022-07-29T14:57:43;101304.03;;;25.31;48.12
28448;BME280;15675;52.870;-1.416;2022-07-29T15:00:09;101303.47;;;25.61;48.19
28448;BME280;15675;52.870;-1.416;2022-07-29T15:02:36;101300.44;;;25.69;47.98
28448;BME280;15675;52.870;-1.416;2022-07-29T15:05:02;101302.53;;;25.44;48.28
28448;BME280;15675;52.870;-1.416;2022-07-29T15:07:28;101304.50;;;25.22;48.66
28448;BME280;15675;52.870;-1.416;2022-07-29T15:09:54;101303.09;;;24.76;49.20
28448;BME280;15675;52.870;-1.416;2022-07-29T15:12:19;101290.19;;;24.88;49.75
28448;BME280;15675;52.870;-1.416;2022-07-29T15:14:45;101294.41;;;24.92;49.53
28448;BME280;15675;52.870;-1.416;2022-07-29T15:17:11;101295.44;;;24.70;49.44
28448;BME280;15675;52.870;-1.416;2022-07-29T15:19:37;101294.72;;;24.46;49.82
28448;BME280;15675;52.870;-1.416;2022-07-29T15:22:03;101291.72;;;24.54;50.58
28448;BME280;15675;52.870;-1.416;2022-07-29T15:24:30;101290.03;;;24.53;50.36
28448;BME280;15675;52.870;-1.416;2022-07-29T15:26:56;101293.75;;;24.87;50.30
28448;BME280;15675;52.870;-1.416;2022-07-29T15:29:22;101284.09;;;24.67;50.15
28448;BME280;15675;52.870;-1.416;2022-07-29T15:31:48;101284.38;;;24.79;49.78
28448;BME280;15675;52.870;-1.416;2022-07-29T15:34:13;101288.31;;;24.90;49.29
28448;BME280;15675;52.870;-1.416;2022-07-29T15:36:39;101283.44;;;24.80;49.59
28448;BME280;15675;52.870;-1.416;2022-07-29T15:39:05;101284.88;;;24.69;49.60
28448;BME280;15675;52.870;-1.416;2022-07-29T15:41:31;101275.03;;;24.71;49.44
28448;BME280;15675;52.870;-1.416;2022-07-29T15:43:56;101274.19;;;24.70;49.68
28448;BME280;15675;52.870;-1.416;2022-07-29T15:46:22;101273.81;;;24.78;49.36
28448;BME280;15675;52.870;-1.416;2022-07-29T15:49:06;101278.91;;;24.63;49.76
28448;BME280;15675;52.870;-1.416;2022-07-29T15:51:32;101270.13;;;24.42;49.79
28448;BME280;15675;52.870;-1.416;2022-07-29T15:54:01;101271.84;;;24.43;49.96
28448;BME280;15675;52.870;-1.416;2022-07-29T15:56:27;101278.22;;;24.58;49.99
28448;BME280;15675;52.870;-1.416;2022-07-29T15:58:53;101274.09;;;24.53;49.72
28448;BME280;15675;52.870;-1.416;2022-07-29T16:01:18;101270.28;;;24.96;49.60
28448;BME280;15675;52.870;-1.416;2022-07-29T16:03:44;101267.53;;;25.17;49.30
28448;BME280;15675;52.870;-1.416;2022-07-29T16:06:10;101267.47;;;25.19;48.74
28448;BME280;15675;52.870;-1.416;2022-07-29T16:08:36;101270.03;;;24.84;49.10
28448;BME280;15675;52.870;-1.416;2022-07-29T16:11:01;101270.34;;;25.14;48.74
28448;BME280;15675;52.870;-1.416;2022-07-29T16:13:27;101273.53;;;25.03;48.83
28448;BME280;15675;52.870;-1.416;2022-07-29T16:15:53;101271.09;;;24.98;48.85
28448;BME280;15675;52.870;-1.416;2022-07-29T16:18:18;101264.34;;;24.72;49.33
28448;BME280;15675;52.870;-1.416;2022-07-29T16:20:44;101260.84;;;24.53;49.42
28448;BME280;15675;52.870;-1.416;2022-07-29T16:23:10;101258.53;;;24.64;49.72
28448;BME280;15675;52.870;-1.416;2022-07-29T16:25:40;101263.50;;;24.53;49.76
28448;BME280;15675;52.870;-1.416;2022-07-29T16:28:06;101265.72;;;25.18;48.80
28448;BME280;15675;52.870;-1.416;2022-07-29T16:30:33;101257.97;;;24.76;48.67
28448;BME280;15675;52.870;-1.416;2022-07-29T16:32:59;101264.06;;;24.97;48.92
28448;BME280;15675;52.870;-1.416;2022-07-29T16:35:25;101266.94;;;24.93;48.51
28448;BME280;15675;52.870;-1.416;2022-07-29T16:37:51;101258.97;;;24.55;49.54
28448;BME280;15675;52.870;-1.416;2022-07-29T16:40:16;101267.75;;;24.55;49.94
28448;BME280;15675;52.870;-1.416;2022-07-29T16:42:42;101269.81;;;24.69;49.96
28448;BME280;15675;52.870;-1.416;2022-07-29T16:45:08;101267.28;;;24.47;50.23
28448;BME280;15675;52.870;-1.416;2022-07-29T16:47:34;101262.84;;;24.67;49.95
28448;BME280;15675;52.870;-1.416;2022-07-29T16:50:00;101260.00;;;24.71;50.63
28448;BME280;15675;52.870;-1.416;2022-07-29T16:52:25;101258.19;;;24.53;50.61
28448;BME280;15675;52.870;-1.416;2022-07-29T16:54:51;101259.88;;;24.54;50.43
28448;BME280;15675;52.870;-1.416;2022-07-29T16:57:17;101257.44;;;24.49;51.08
28448;BME280;15675;52.870;-1.416;2022-07-29T16:59:42;101253.44;;;24.40;50.82
28448;BME280;15675;52.870;-1.416;2022-07-29T17:02:08;101252.38;;;24.05;51.48
28448;BME280;15675;52.870;-1.416;2022-07-29T17:04:35;101254.81;;;24.09;51.51
28448;BME280;15675;52.870;-1.416;2022-07-29T17:07:01;101255.81;;;24.07;51.41
28448;BME280;15675;52.870;-1.416;2022-07-29T17:09:26;101250.50;;;24.27;51.18
28448;BME280;15675;52.870;-1.416;2022-07-29T17:11:52;101248.97;;;24.22;51.16
28448;BME280;15675;52.870;-1.416;2022-07-29T17:14:19;101256.25;;;24.37;50.97
28448;BME280;15675;52.870;-1.416;2022-07-29T17:16:45;101246.84;;;24.30;50.66
28448;BME280;15675;52.870;-1.416;2022-07-29T17:19:10;101255.19;;;24.21;50.93
28448;BME280;15675;52.870;-1.416;2022-07-29T17:21:36;101255.56;;;24.13;50.84
28448;BME280;15675;52.870;-1.416;2022-07-29T17:24:02;101242.94;;;24.18;51.10
28448;BME280;15675;52.870;-1.416;2022-07-29T17:26:28;101252.78;;;24.35;51.01
28448;BME280;15675;52.870;-1.416;2022-07-29T17:28:54;101255.03;;;24.44;50.87
28448;BME280;15675;52.870;-1.416;2022-07-29T17:31:21;101249.72;;;24.44;50.50
28448;BME280;15675;52.870;-1.416;2022-07-29T17:33:46;101241.31;;;24.54;50.41
28448;BME280;15675;52.870;-1.416;2022-07-29T17:36:12;101243.59;;;24.63;50.67
28448;BME280;15675;52.870;-1.416;2022-07-29T17:39:00;101235.63;;;24.63;50.22
28448;BME280;15675;52.870;-1.416;2022-07-29T17:41:27;101234.19;;;24.16;51.72
28448;BME280;15675;52.870;-1.416;2022-07-29T17:43:53;101237.31;;;24.05;51.58
28448;BME280;15675;52.870;-1.416;2022-07-29T17:46:20;101242.69;;;24.24;51.11
28448;BME280;15675;52.870;-1.416;2022-07-29T17:48:46;101238.81;;;24.32;51.35
28448;BME280;15675;52.870;-1.416;2022-07-29T17:51:12;101244.44;;;24.24;51.26
28448;BME280;15675;52.870;-1.416;2022-07-29T17:53:38;101243.94;;;24.16;51.27
28448;BME280;15675;52.870;-1.416;2022-07-29T17:56:04;101240.13;;;24.02;51.61
28448;BME280;15675;52.870;-1.416;2022-07-29T17:58:31;101238.78;;;24.12;52.06
28448;BME280;15675;52.870;-1.416;2022-07-29T18:00:57;101241.22;;;24.17;51.87
28448;BME280;15675;52.870;-1.416;2022-07-29T18:03:23;101240.53;;;23.93;51.79
28448;BME280;15675;52.870;-1.416;2022-07-29T18:05:49;101246.25;;;23.82;52.41
28448;BME280;15675;52.870;-1.416;2022-07-29T18:08:15;101244.97;;;23.92;52.53
28448;BME280;15675;52.870;-1.416;2022-07-29T18:10:43;101249.72;;;24.05;52.49
28448;BME280;15675;52.870;-1.416;2022-07-29T18:13:09;101245.03;;;24.11;52.62
28448;BME280;15675;52.870;-1.416;2022-07-29T18:15:38;101247.41;;;24.37;52.09
28448;BME280;15675;52.870;-1.416;2022-07-29T18:18:04;101248.34;;;24.36;52.11
28448;BME280;15675;52.870;-1.416;2022-07-29T18:20:31;101251.78;;;24.57;51.86
28448;BME280;15675;52.870;-1.416;2022-07-29T18:22:57;101250.50;;;24.46;51.96
28448;BME280;15675;52.870;-1.416;2022-07-29T18:25:22;101245.75;;;24.34;52.34
28448;BME280;15675;52.870;-1.416;2022-07-29T18:27:49;101243.88;;;24.17;52.72
28448;BME280;15675;52.870;-1.416;2022-07-29T18:30:14;101249.13;;;24.19;53.13
28448;BME280;15675;52.870;-1.416;2022-07-29T18:32:41;101253.84;;;24.31;53.47
28448;BME280;15675;52.870;-1.416;2022-07-29T18:35:07;101252.41;;;24.24;53.28
28448;BME280;15675;52.870;-1.416;2022-07-29T18:37:33;101249.59;;;24.08;53.75
28448;BME280;15675;52.870;-1.416;2022-07-29T18:39:59;101245.09;;;24.10;53.88
28448;BME280;15675;52.870;-1.416;2022-07-29T18:42:26;101248.34;;;23.96;53.94
28448;BME280;15675;52.870;-1.416;2022-07-29T18:44:52;101253.16;;;23.66;54.87
28448;BME280;15675;52.870;-1.416;2022-07-29T18:47:20;101250.34;;;23.27;55.09
28448;BME280;15675;52.870;-1.416;2022-07-29T18:49:47;101250.91;;;23.14;55.83
28448;BME280;15675;52.870;-1.416;2022-07-29T18:52:12;101242.03;;;23.15;56.04
28448;BME280;15675;52.870;-1.416;2022-07-29T18:54:38;101244.56;;;23.18;56.21
28448;BME280;15675;52.870;-1.416;2022-07-29T18:57:03;101242.03;;;23.15;56.75
28448;BME280;15675;52.870;-1.416;2022-07-29T18:59:29;101244.72;;;22.91;56.92
28448;BME280;15675;52.870;-1.416;2022-07-29T19:01:55;101247.69;;;22.60;57.46
28448;BME280;15675;52.870;-1.416;2022-07-29T19:04:21;101240.41;;;22.66;57.52
28448;BME280;15675;52.870;-1.416;2022-07-29T19:06:47;101245.22;;;22.55;57.92
28448;BME280;15675;52.870;-1.416;2022-07-29T19:09:13;101242.47;;;22.58;58.00
28448;BME280;15675;52.870;-1.416;2022-07-29T19:11:39;101241.81;;;22.51;57.82
28448;BME280;15675;52.870;-1.416;2022-07-29T19:14:05;101243.38;;;22.57;58.03
28448;BME280;15675;52.870;-1.416;2022-07-29T19:16:31;101247.88;;;22.55;57.92
28448;BME280;15675;52.870;-1.416;2022-07-29T19:18:57;101247.69;;;22.60;58.21
28448;BME280;15675;52.870;-1.416;2022-07-29T19:21:25;101248.44;;;22.63;57.95
28448;BME280;15675;52.870;-1.416;2022-07-29T19:23:51;101248.78;;;22.78;57.51
28448;BME280;15675;52.870;-1.416;2022-07-29T19:26:18;101254.47;;;22.67;57.42
28448;BME280;15675;52.870;-1.416;2022-07-29T19:28:46;101248.56;;;22.36;58.08
28448;BME280;15675;52.870;-1.416;2022-07-29T19:31:11;101254.72;;;22.61;58.48
28448;BME280;15675;52.870;-1.416;2022-07-29T19:33:38;101243.44;;;22.55;58.22
28448;BME280;15675;52.870;-1.416;2022-07-29T19:36:04;101246.34;;;22.24;58.99
28448;BME280;15675;52.870;-1.416;2022-07-29T19:38:30;101247.09;;;22.28;59.71
28448;BME280;15675;52.870;-1.416;2022-07-29T19:40:56;101243.69;;;22.24;59.84
28448;BME280;15675;52.870;-1.416;2022-07-29T19:43:22;101245.09;;;22.11;60.19
28448;BME280;15675;52.870;-1.416;2022-07-29T19:45:49;101241.06;;;21.99;60.39
28448;BME280;15675;52.870;-1.416;2022-07-29T19:48:15;101244.53;;;22.01;60.55
28448;BME280;15675;52.870;-1.416;2022-07-29T19:53:06;101239.03;;;21.82;61.18
28448;BME280;15675;52.870;-1.416;2022-07-29T19:55:34;101234.75;;;21.79;61.44
28448;BME280;15675;52.870;-1.416;2022-07-29T19:58:01;101235.69;;;21.51;61.75
28448;BME280;15675;52.870;-1.416;2022-07-29T20:00:28;101237.09;;;21.62;62.21
28448;BME280;15675;52.870;-1.416;2022-07-29T20:02:55;101231.22;;;21.79;61.40
28448;BME280;15675;52.870;-1.416;2022-07-29T20:05:21;101249.44;;;21.61;61.86
28448;BME280;15675;52.870;-1.416;2022-07-29T20:07:47;101243.59;;;21.51;62.27
28448;BME280;15675;52.870;-1.416;2022-07-29T20:10:13;101242.97;;;21.43;62.86
28448;BME280;15675;52.870;-1.416;2022-07-29T20:12:39;101243.81;;;21.72;62.43
28448;BME280;15675;52.870;-1.416;2022-07-29T20:15:08;101254.72;;;22.12;61.44
28448;BME280;15675;52.870;-1.416;2022-07-29T20:17:37;101251.81;;;22.43;60.69
28448;BME280;15675;52.870;-1.416;2022-07-29T20:20:05;101259.81;;;22.41;59.88
28448;BME280;15675;52.870;-1.416;2022-07-29T20:22:31;101249.38;;;22.13;60.83
28448;BME280;15675;52.870;-1.416;2022-07-29T20:24:56;101254.06;;;21.54;62.67
28448;BME280;15675;52.870;-1.416;2022-07-29T20:27:22;101256.34;;;21.10;64.73
28448;BME280;15675;52.870;-1.416;2022-07-29T20:29:48;101263.06;;;21.20;65.50
28448;BME280;15675;52.870;-1.416;2022-07-29T20:32:14;101252.50;;;21.47;65.11